sensor_id;sensor_type;location;lat;lon;timestamp;P1;durP1;ratioP1;P2;durP2;ratioP2
19207;SDS011;9737;59.466;18.036;2022-10-16T00:01:15;54.33;;;22.52;;
19207;SDS011;9737;59.466;18.036;2022-10-16T00:03:45;50.72;;;22.60;;
19207;SDS011;9737;59.466;18.036;2022-10-16T00:06:14;57.22;;;23.27;;
19207;SDS011;9737;59.466;18.036;2022-10-16T00:08:43;53.85;;;21.58;;
19207;SDS011;9737;59.466;18.036;2022-10-16T00:11:12;43.03;;;20.10;;
19207;SDS011;9737;59.466;18.036;2022-10-16T00:13:44;44.45;;;20.10;;
19207;SDS011;9737;59.466;18.036;2022-10-16T00:16:13;44.22;;;19.85;;
19207;SDS011;9737;59.466;18.036;2022-10-16T00:18:42;38.10;;;18.63;;
19207;SDS011;9737;59.466;18.036;2022-10-16T00:21:11;38.17;;;17.50;;
19207;SDS011;9737;59.466;18.036;2022-10-16T00:23:41;38.97;;;18.60;;
19207;SDS011;9737;59.466;18.036;2022-10-16T00:26:10;36.28;;;17.70;;
19207;SDS011;9737;59.466;18.036;2022-10-16T00:28:40;32.78;;;15.63;;
19207;SDS011;9737;59.466;18.036;2022-10-16T00:31:10;31.95;;;16.17;;
19207;SDS011;9737;59.466;18.036;2022-10-16T00:33:39;29.45;;;14.95;;
19207;SDS011;9737;59.466;18.036;2022-10-16T00:36:08;30.80;;;15.70;;
19207;SDS011;9737;59.466;18.036;2022-10-16T00:38:38;33.63;;;15.73;;
19207;SDS011;9737;59.466;18.036;2022-10-16T00:41:07;36.13;;;17.48;;
19207;SDS011;9737;59.466;18.036;2022-10-16T00:43:39;31.48;;;16.70;;
19207;SDS011;9737;59.466;18.036;2022-10-16T00:46:15;30.70;;;16.33;;
19207;SDS011;9737;59.466;18.036;2022-10-16T00:48:46;34.17;;;16.65;;
19207;SDS011;9737;59.466;18.036;2022-10-16T00:51:19;31.48;;;16.60;;
19207;SDS011;9737;59.466;18.036;2022-10-16T00:53:50;34.63;;;16.25;;
19207;SDS011;9737;59.466;18.036;2022-10-16T00:56:19;29.52;;;15.38;;
19207;SDS011;9737;59.466;18.036;2022-10-16T00:58:47;31.40;;;14.70;;
19207;SDS011;9737;59.466;18.036;2022-10-16T01:01:17;28.60;;;15.07;;
19207;SDS011;9737;59.466;18.036;2022-10-16T01:03:45;25.95;;;14.15;;
19207;SDS011;9737;59.466;18.036;2022-10-16T01:06:19;28.55;;;14.85;;
19207;SDS011;9737;59.466;18.036;2022-10-16T01:08:54;26.80;;;14.80;;
19207;SDS011;9737;59.466;18.036;2022-10-16T01:11:31;35.25;;;16.00;;
19207;SDS011;9737;59.466;18.036;2022-10-16T01:14:03;34.17;;;16.13;;
19207;SDS011;9737;59.466;18.036;2022-10-16T01:16:38;29.00;;;15.35;;
19207;SDS011;9737;59.466;18.036;2022-10-16T01:19:12;33.65;;;16.15;;
19207;SDS011;9737;59.466;18.036;2022-10-16T01:21:44;30.33;;;15.63;;
19207;SDS011;9737;59.466;18.036;2022-10-16T01:24:17;32.95;;;16.15;;
19207;SDS011;9737;59.466;18.036;2022-10-16T01:27:04;29.65;;;15.02;;
19207;SDS011;9737;59.466;18.036;2022-10-16T01:29:36;31.15;;;16.08;;
19207;SDS011;9737;59.466;18.036;2022-10-16T01:32:11;39.60;;;16.27;;
19207;SDS011;9737;59.466;18.036;2022-10-16T01:34:46;34.97;;;17.00;;
19207;SDS011;9737;59.466;18.036;2022-10-16T01:37:21;30.88;;;15.98;;
19207;SDS011;9737;59.466;18.036;2022-10-16T01:39:55;34.90;;;16.50;;
19207;SDS011;9737;59.466;18.036;2022-10-16T01:42:30;27.25;;;15.10;;
19207;SDS011;9737;59.466;18.036;2022-10-16T01:45:02;29.65;;;15.82;;
19207;SDS011;9737;59.466;18.036;2022-10-16T01:47:33;29.92;;;15.52;;
19207;SDS011;9737;59.466;18.036;2022-10-16T01:50:03;36.60;;;16.60;;
19207;SDS011;9737;59.466;18.036;2022-10-16T01:52:34;35.08;;;17.33;;
19207;SDS011;9737;59.466;18.036;2022-10-16T01:55:06;38.15;;;17.30;;
19207;SDS011;9737;59.466;18.036;2022-10-16T01:57:38;31.73;;;16.13;;
19207;SDS011;9737;59.466;18.036;2022-10-16T02:00:12;29.95;;;15.48;;
19207;SDS011;9737;59.466;18.036;2022-10-16T02:02:42;31.45;;;17.30;;
19207;SDS011;9737;59.466;18.036;2022-10-16T02:05:16;30.67;;;15.00;;
19207;SDS011;9737;59.466;18.036;2022-10-16T02:07:49;33.63;;;16.80;;
19207;SDS011;9737;59.466;18.036;2022-10-16T02:10:17;31.23;;;16.45;;
19207;SDS011;9737;59.466;18.036;2022-10-16T02:12:47;26.52;;;14.75;;
19207;SDS011;9737;59.466;18.036;2022-10-16T02:15:21;32.65;;;16.40;;
19207;SDS011;9737;59.466;18.036;2022-10-16T02:17:49;27.55;;;14.55;;
19207;SDS011;9737;59.466;18.036;2022-10-16T02:20:17;28.30;;;14.63;;
19207;SDS011;9737;59.466;18.036;2022-10-16T02:22:51;32.50;;;14.70;;
19207;SDS011;9737;59.466;18.036;2022-10-16T02:25:22;26.95;;;14.98;;
19207;SDS011;9737;59.466;18.036;2022-10-16T02:27:57;25.15;;;14.32;;
19207;SDS011;9737;59.466;18.036;2022-10-16T02:30:32;29.15;;;14.48;;
19207;SDS011;9737;59.466;18.036;2022-10-16T02:33:04;27.10;;;14.63;;
19207;SDS011;9737;59.466;18.036;2022-10-16T02:35:36;27.25;;;14.20;;
19207;SDS011;9737;59.466;18.036;2022-10-16T02:38:06;27.65;;;14.52;;
19207;SDS011;9737;59.466;18.036;2022-10-16T02:40:40;23.85;;;13.32;;
19207;SDS011;9737;59.466;18.036;2022-10-16T02:43:12;25.60;;;14.13;;
19207;SDS011;9737;59.466;18.036;2022-10-16T02:45:41;26.92;;;13.65;;
19207;SDS011;9737;59.466;18.036;2022-10-16T02:48:09;24.40;;;14.05;;
19207;SDS011;9737;59.466;18.036;2022-10-16T02:50:37;26.85;;;13.05;;
19207;SDS011;9737;59.466;18.036;2022-10-16T02:53:04;25.95;;;13.40;;
19207;SDS011;9737;59.466;18.036;2022-10-16T02:55:32;27.35;;;13.23;;
19207;SDS011;9737;59.466;18.036;2022-10-16T02:58:00;31.45;;;13.77;;
19207;SDS011;9737;59.466;18.036;2022-10-16T03:00:30;28.70;;;12.57;;
19207;SDS011;9737;59.466;18.036;2022-10-16T03:02:58;24.80;;;13.25;;
19207;SDS011;9737;59.466;18.036;2022-10-16T03:05:26;25.10;;;13.27;;
19207;SDS011;9737;59.466;18.036;2022-10-16T03:07:53;27.67;;;12.52;;
19207;SDS011;9737;59.466;18.036;2022-10-16T03:10:22;26.55;;;13.35;;
19207;SDS011;9737;59.466;18.036;2022-10-16T03:12:50;30.80;;;13.60;;
19207;SDS011;9737;59.466;18.036;2022-10-16T03:15:17;23.00;;;13.13;;
19207;SDS011;9737;59.466;18.036;2022-10-16T03:17:47;28.50;;;13.93;;
19207;SDS011;9737;59.466;18.036;2022-10-16T03:20:15;27.98;;;13.55;;
19207;SDS011;9737;59.466;18.036;2022-10-16T03:22:43;26.17;;;13.52;;
19207;SDS011;9737;59.466;18.036;2022-10-16T03:25:11;26.27;;;13.35;;
19207;SDS011;9737;59.466;18.036;2022-10-16T03:27:39;29.20;;;13.30;;
19207;SDS011;9737;59.466;18.036;2022-10-16T03:30:08;26.15;;;14.48;;
19207;SDS011;9737;59.466;18.036;2022-10-16T03:32:37;25.75;;;13.48;;
19207;SDS011;9737;59.466;18.036;2022-10-16T03:35:07;29.08;;;14.23;;
19207;SDS011;9737;59.466;18.036;2022-10-16T03:37:35;26.42;;;14.88;;
19207;SDS011;9737;59.466;18.036;2022-10-16T03:40:04;26.67;;;14.25;;
19207;SDS011;9737;59.466;18.036;2022-10-16T03:42:33;27.50;;;14.27;;
19207;SDS011;9737;59.466;18.036;2022-10-16T03:45:01;25.55;;;13.18;;
19207;SDS011;9737;59.466;18.036;2022-10-16T03:47:29;31.92;;;13.27;;
19207;SDS011;9737;59.466;18.036;2022-10-16T03:49:59;24.88;;;13.57;;
19207;SDS011;9737;59.466;18.036;2022-10-16T03:52:29;25.80;;;13.40;;
19207;SDS011;9737;59.466;18.036;2022-10-16T03:54:58;27.83;;;13.50;;
19207;SDS011;9737;59.466;18.036;2022-10-16T03:57:26;28.15;;;13.02;;
19207;SDS011;9737;59.466;18.036;2022-10-16T03:59:55;24.10;;;13.18;;
19207;SDS011;9737;59.466;18.036;2022-10-16T04:02:23;23.25;;;13.60;;
19207;SDS011;9737;59.466;18.036;2022-10-16T04:04:51;22.50;;;12.10;;
19207;SDS011;9737;59.466;18.036;2022-10-16T04:07:19;27.77;;;12.32;;
19207;SDS011;9737;59.466;18.036;2022-10-16T04:09:49;24.80;;;12.27;;
19207;SDS011;9737;59.466;18.036;2022-10-16T04:12:18;20.58;;;11.63;;
19207;SDS011;9737;59.466;18.036;2022-10-16T04:14:46;21.35;;;12.07;;
19207;SDS011;9737;59.466;18.036;2022-10-16T04:17:14;28.17;;;13.50;;
19207;SDS011;9737;59.466;18.036;2022-10-16T04:19:42;25.45;;;12.32;;
19207;SDS011;9737;59.466;18.036;2022-10-16T04:22:10;21.00;;;11.52;;
19207;SDS011;9737;59.466;18.036;2022-10-16T04:24:38;22.25;;;10.95;;
19207;SDS011;9737;59.466;18.036;2022-10-16T04:27:09;26.42;;;11.23;;
19207;SDS011;9737;59.466;18.036;2022-10-16T04:29:37;19.58;;;10.88;;
19207;SDS011;9737;59.466;18.036;2022-10-16T04:32:05;23.15;;;10.98;;
19207;SDS011;9737;59.466;18.036;2022-10-16T04:34:35;19.08;;;10.55;;
19207;SDS011;9737;59.466;18.036;2022-10-16T04:37:04;19.48;;;10.68;;
19207;SDS011;9737;59.466;18.036;2022-10-16T04:39:32;19.65;;;10.40;;
19207;SDS011;9737;59.466;18.036;2022-10-16T04:42:00;21.38;;;10.52;;
19207;SDS011;9737;59.466;18.036;2022-10-16T04:44:30;20.92;;;10.80;;
19207;SDS011;9737;59.466;18.036;2022-10-16T04:46:58;18.30;;;10.68;;
19207;SDS011;9737;59.466;18.036;2022-10-16T04:49:26;19.13;;;9.85;;
19207;SDS011;9737;59.466;18.036;2022-10-16T04:51:57;16.25;;;9.63;;
19207;SDS011;9737;59.466;18.036;2022-10-16T04:54:25;17.80;;;10.20;;
19207;SDS011;9737;59.466;18.036;2022-10-16T04:56:52;15.82;;;8.65;;
19207;SDS011;9737;59.466;18.036;2022-10-16T04:59:21;17.50;;;9.48;;
19207;SDS011;9737;59.466;18.036;2022-10-16T05:01:50;22.67;;;9.60;;
19207;SDS011;9737;59.466;18.036;2022-10-16T05:04:18;19.60;;;9.57;;
19207;SDS011;9737;59.466;18.036;2022-10-16T05:06:49;19.02;;;9.48;;
19207;SDS011;9737;59.466;18.036;2022-10-16T05:09:17;15.00;;;9.00;;
19207;SDS011;9737;59.466;18.036;2022-10-16T05:11:45;22.48;;;9.77;;
19207;SDS011;9737;59.466;18.036;2022-10-16T05:14:12;23.17;;;10.00;;
19207;SDS011;9737;59.466;18.036;2022-10-16T05:16:40;14.88;;;8.95;;
19207;SDS011;9737;59.466;18.036;2022-10-16T05:19:10;15.13;;;8.82;;
19207;SDS011;9737;59.466;18.036;2022-10-16T05:21:53;18.17;;;8.90;;
19207;SDS011;9737;59.466;18.036;2022-10-16T05:24:21;18.58;;;9.77;;
19207;SDS011;9737;59.466;18.036;2022-10-16T05:26:50;16.17;;;9.23;;
19207;SDS011;9737;59.466;18.036;2022-10-16T05:29:18;17.92;;;9.20;;
19207;SDS011;9737;59.466;18.036;2022-10-16T05:31:46;17.83;;;8.73;;
19207;SDS011;9737;59.466;18.036;2022-10-16T05:34:18;17.65;;;9.00;;
19207;SDS011;9737;59.466;18.036;2022-10-16T05:36:46;14.35;;;8.68;;
19207;SDS011;9737;59.466;18.036;2022-10-16T05:39:15;16.70;;;9.48;;
19207;SDS011;9737;59.466;18.036;2022-10-16T05:41:43;15.13;;;8.52;;
19207;SDS011;9737;59.466;18.036;2022-10-16T05:44:11;21.48;;;9.90;;
19207;SDS011;9737;59.466;18.036;2022-10-16T05:46:45;16.70;;;9.52;;
19207;SDS011;9737;59.466;18.036;2022-10-16T05:49:16;15.88;;;9.27;;
19207;SDS011;9737;59.466;18.036;2022-10-16T05:51:45;21.58;;;10.30;;
19207;SDS011;9737;59.466;18.036;2022-10-16T05:54:13;18.15;;;9.85;;
19207;SDS011;9737;59.466;18.036;2022-10-16T05:56:42;19.33;;;10.52;;
19207;SDS011;9737;59.466;18.036;2022-10-16T05:59:10;21.63;;;11.40;;
19207;SDS011;9737;59.466;18.036;2022-10-16T06:01:38;22.90;;;10.85;;
19207;SDS011;9737;59.466;18.036;2022-10-16T06:04:06;21.08;;;10.48;;
19207;SDS011;9737;59.466;18.036;2022-10-16T06:06:34;23.25;;;11.40;;
19207;SDS011;9737;59.466;18.036;2022-10-16T06:09:04;20.55;;;11.23;;
19207;SDS011;9737;59.466;18.036;2022-10-16T06:11:32;22.58;;;12.07;;
19207;SDS011;9737;59.466;18.036;2022-10-16T06:14:01;23.42;;;11.10;;
19207;SDS011;9737;59.466;18.036;2022-10-16T06:16:33;28.60;;;12.27;;
19207;SDS011;9737;59.466;18.036;2022-10-16T06:19:02;20.55;;;10.95;;
19207;SDS011;9737;59.466;18.036;2022-10-16T06:21:32;20.55;;;11.23;;
19207;SDS011;9737;59.466;18.036;2022-10-16T06:24:01;24.38;;;12.15;;
19207;SDS011;9737;59.466;18.036;2022-10-16T06:26:31;26.90;;;12.23;;
19207;SDS011;9737;59.466;18.036;2022-10-16T06:28:59;23.75;;;12.57;;
19207;SDS011;9737;59.466;18.036;2022-10-16T06:31:27;22.27;;;12.85;;
19207;SDS011;9737;59.466;18.036;2022-10-16T06:34:00;23.70;;;13.13;;
19207;SDS011;9737;59.466;18.036;2022-10-16T06:36:28;29.90;;;12.60;;
19207;SDS011;9737;59.466;18.036;2022-10-16T06:38:56;24.92;;;13.13;;
19207;SDS011;9737;59.466;18.036;2022-10-16T06:41:24;22.85;;;13.45;;
19207;SDS011;9737;59.466;18.036;2022-10-16T06:43:54;32.00;;;12.73;;
19207;SDS011;9737;59.466;18.036;2022-10-16T06:46:22;29.30;;;14.38;;
19207;SDS011;9737;59.466;18.036;2022-10-16T06:48:52;27.92;;;14.40;;
19207;SDS011;9737;59.466;18.036;2022-10-16T06:51:21;27.77;;;13.75;;
19207;SDS011;9737;59.466;18.036;2022-10-16T06:53:50;28.33;;;14.25;;
19207;SDS011;9737;59.466;18.036;2022-10-16T06:56:31;27.83;;;14.40;;
19207;SDS011;9737;59.466;18.036;2022-10-16T06:59:02;25.02;;;14.05;;
19207;SDS011;9737;59.466;18.036;2022-10-16T07:01:30;27.60;;;13.75;;
19207;SDS011;9737;59.466;18.036;2022-10-16T07:03:59;52.50;;;14.35;;
19207;SDS011;9737;59.466;18.036;2022-10-16T07:06:31;28.52;;;13.68;;
19207;SDS011;9737;59.466;18.036;2022-10-16T07:09:01;30.50;;;14.52;;
19207;SDS011;9737;59.466;18.036;2022-10-16T07:11:32;30.92;;;15.23;;
19207;SDS011;9737;59.466;18.036;2022-10-16T07:14:02;31.95;;;14.27;;
19207;SDS011;9737;59.466;18.036;2022-10-16T07:16:30;29.98;;;14.00;;
19207;SDS011;9737;59.466;18.036;2022-10-16T07:19:00;31.50;;;15.20;;
19207;SDS011;9737;59.466;18.036;2022-10-16T07:21:30;32.97;;;15.13;;
19207;SDS011;9737;59.466;18.036;2022-10-16T07:24:02;32.78;;;14.10;;
19207;SDS011;9737;59.466;18.036;2022-10-16T07:26:33;24.48;;;13.23;;
19207;SDS011;9737;59.466;18.036;2022-10-16T07:29:09;24.15;;;12.95;;
19207;SDS011;9737;59.466;18.036;2022-10-16T07:31:40;22.25;;;12.68;;
19207;SDS011;9737;59.466;18.036;2022-10-16T07:34:08;27.50;;;12.75;;
19207;SDS011;9737;59.466;18.036;2022-10-16T07:36:37;21.73;;;11.60;;
19207;SDS011;9737;59.466;18.036;2022-10-16T07:39:05;21.65;;;13.35;;
19207;SDS011;9737;59.466;18.036;2022-10-16T07:41:33;25.17;;;13.15;;
19207;SDS011;9737;59.466;18.036;2022-10-16T07:44:03;23.70;;;13.00;;
19207;SDS011;9737;59.466;18.036;2022-10-16T07:46:35;19.65;;;11.55;;
19207;SDS011;9737;59.466;18.036;2022-10-16T07:49:14;24.25;;;11.90;;
19207;SDS011;9737;59.466;18.036;2022-10-16T07:51:42;20.10;;;11.27;;
19207;SDS011;9737;59.466;18.036;2022-10-16T07:54:10;22.23;;;11.85;;
19207;SDS011;9737;59.466;18.036;2022-10-16T07:56:38;20.45;;;11.27;;
19207;SDS011;9737;59.466;18.036;2022-10-16T07:59:09;19.33;;;10.63;;
19207;SDS011;9737;59.466;18.036;2022-10-16T08:01:39;23.90;;;9.65;;
19207;SDS011;9737;59.466;18.036;2022-10-16T08:04:08;19.90;;;9.88;;
19207;SDS011;9737;59.466;18.036;2022-10-16T08:06:37;19.48;;;8.85;;
19207;SDS011;9737;59.466;18.036;2022-10-16T08:09:07;19.63;;;9.45;;
19207;SDS011;9737;59.466;18.036;2022-10-16T08:11:35;13.85;;;8.32;;
19207;SDS011;9737;59.466;18.036;2022-10-16T08:14:03;12.60;;;7.90;;
19207;SDS011;9737;59.466;18.036;2022-10-16T08:16:31;14.82;;;7.57;;
19207;SDS011;9737;59.466;18.036;2022-10-16T08:19:01;17.63;;;7.70;;
19207;SDS011;9737;59.466;18.036;2022-10-16T08:21:29;14.70;;;7.03;;
19207;SDS011;9737;59.466;18.036;2022-10-16T08:23:57;10.13;;;6.60;;
19207;SDS011;9737;59.466;18.036;2022-10-16T08:26:26;11.27;;;6.38;;
19207;SDS011;9737;59.466;18.036;2022-10-16T08:28:55;14.43;;;6.60;;
19207;SDS011;9737;59.466;18.036;2022-10-16T08:31:25;12.75;;;6.40;;
19207;SDS011;9737;59.466;18.036;2022-10-16T08:33:53;13.98;;;6.82;;
19207;SDS011;9737;59.466;18.036;2022-10-16T08:36:23;12.68;;;6.07;;
19207;SDS011;9737;59.466;18.036;2022-10-16T08:38:51;10.10;;;6.40;;
19207;SDS011;9737;59.466;18.036;2022-10-16T08:41:30;10.45;;;6.57;;
19207;SDS011;9737;59.466;18.036;2022-10-16T08:47:12;15.77;;;5.95;;
19207;SDS011;9737;59.466;18.036;2022-10-16T08:49:50;10.63;;;6.25;;
19207;SDS011;9737;59.466;18.036;2022-10-16T08:52:28;11.57;;;6.30;;
19207;SDS011;9737;59.466;18.036;2022-10-16T08:54:59;10.93;;;6.28;;
19207;SDS011;9737;59.466;18.036;2022-10-16T08:57:28;12.02;;;6.72;;
19207;SDS011;9737;59.466;18.036;2022-10-16T08:59:58;8.48;;;5.38;;
19207;SDS011;9737;59.466;18.036;2022-10-16T09:02:44;11.43;;;5.90;;
19207;SDS011;9737;59.466;18.036;2022-10-16T09:05:20;13.93;;;6.25;;
19207;SDS011;9737;59.466;18.036;2022-10-16T09:09:09;9.95;;;5.72;;
19207;SDS011;9737;59.466;18.036;2022-10-16T09:11:55;10.40;;;5.82;;
19207;SDS011;9737;59.466;18.036;2022-10-16T09:17:30;8.68;;;5.88;;
19207;SDS011;9737;59.466;18.036;2022-10-16T09:20:18;18.40;;;5.95;;
19207;SDS011;9737;59.466;18.036;2022-10-16T09:22:55;10.73;;;5.30;;
19207;SDS011;9737;59.466;18.036;2022-10-16T09:25:39;10.75;;;5.47;;
19207;SDS011;9737;59.466;18.036;2022-10-16T09:28:08;11.23;;;4.88;;
19207;SDS011;9737;59.466;18.036;2022-10-16T09:30:38;19.48;;;5.40;;
19207;SDS011;9737;59.466;18.036;2022-10-16T09:33:07;8.52;;;4.93;;
19207;SDS011;9737;59.466;18.036;2022-10-16T09:35:52;7.47;;;4.65;;
19207;SDS011;9737;59.466;18.036;2022-10-16T09:38:23;8.35;;;4.35;;
19207;SDS011;9737;59.466;18.036;2022-10-16T09:40:54;9.98;;;4.20;;
19207;SDS011;9737;59.466;18.036;2022-10-16T09:43:46;10.23;;;4.18;;
19207;SDS011;9737;59.466;18.036;2022-10-16T09:46:24;8.23;;;4.35;;
19207;SDS011;9737;59.466;18.036;2022-10-16T09:48:55;7.82;;;4.32;;
19207;SDS011;9737;59.466;18.036;2022-10-16T09:51:25;10.38;;;3.90;;
19207;SDS011;9737;59.466;18.036;2022-10-16T09:53:55;11.77;;;4.40;;
19207;SDS011;9737;59.466;18.036;2022-10-16T09:56:30;8.95;;;4.13;;
19207;SDS011;9737;59.466;18.036;2022-10-16T09:59:08;8.20;;;4.00;;
19207;SDS011;9737;59.466;18.036;2022-10-16T10:01:39;5.38;;;3.35;;
19207;SDS011;9737;59.466;18.036;2022-10-16T10:04:10;7.45;;;4.07;;
19207;SDS011;9737;59.466;18.036;2022-10-16T10:06:41;8.18;;;3.65;;
19207;SDS011;9737;59.466;18.036;2022-10-16T10:09:16;8.32;;;3.38;;
19207;SDS011;9737;59.466;18.036;2022-10-16T10:11:49;7.05;;;2.92;;
19207;SDS011;9737;59.466;18.036;2022-10-16T10:14:20;6.90;;;3.20;;
19207;SDS011;9737;59.466;18.036;2022-10-16T10:17:01;6.32;;;2.50;;
19207;SDS011;9737;59.466;18.036;2022-10-16T10:19:40;5.65;;;2.35;;
19207;SDS011;9737;59.466;18.036;2022-10-16T10:22:30;5.72;;;2.58;;
19207;SDS011;9737;59.466;18.036;2022-10-16T10:25:00;13.27;;;2.55;;
19207;SDS011;9737;59.466;18.036;2022-10-16T10:27:43;7.00;;;2.50;;
19207;SDS011;9737;59.466;18.036;2022-10-16T10:30:20;8.23;;;2.53;;
19207;SDS011;9737;59.466;18.036;2022-10-16T10:32:55;10.82;;;2.20;;
19207;SDS011;9737;59.466;18.036;2022-10-16T10:35:53;5.28;;;1.95;;
19207;SDS011;9737;59.466;18.036;2022-10-16T10:38:30;8.23;;;2.50;;
19207;SDS011;9737;59.466;18.036;2022-10-16T10:41:12;6.20;;;2.10;;
19207;SDS011;9737;59.466;18.036;2022-10-16T10:44:11;10.88;;;2.75;;
19207;SDS011;9737;59.466;18.036;2022-10-16T10:46:45;8.88;;;2.67;;
19207;SDS011;9737;59.466;18.036;2022-10-16T10:49:22;8.95;;;2.63;;
19207;SDS011;9737;59.466;18.036;2022-10-16T10:52:24;4.60;;;2.70;;
19207;SDS011;9737;59.466;18.036;2022-10-16T10:55:06;4.53;;;2.55;;
19207;SDS011;9737;59.466;18.036;2022-10-16T10:57:42;5.97;;;2.78;;
19207;SDS011;9737;59.466;18.036;2022-10-16T11:00:27;11.45;;;3.00;;
19207;SDS011;9737;59.466;18.036;2022-10-16T11:02:59;6.70;;;2.42;;
19207;SDS011;9737;59.466;18.036;2022-10-16T11:05:40;9.60;;;2.75;;
19207;SDS011;9737;59.466;18.036;2022-10-16T11:08:11;9.80;;;2.60;;
19207;SDS011;9737;59.466;18.036;2022-10-16T11:10:46;8.40;;;2.60;;
19207;SDS011;9737;59.466;18.036;2022-10-16T11:13:20;5.70;;;2.65;;
19207;SDS011;9737;59.466;18.036;2022-10-16T11:15:58;9.30;;;2.50;;
19207;SDS011;9737;59.466;18.036;2022-10-16T11:18:30;5.63;;;2.17;;
19207;SDS011;9737;59.466;18.036;2022-10-16T11:21:09;8.18;;;2.33;;
19207;SDS011;9737;59.466;18.036;2022-10-16T11:23:41;7.22;;;2.60;;
19207;SDS011;9737;59.466;18.036;2022-10-16T11:26:15;4.20;;;2.05;;
19207;SDS011;9737;59.466;18.036;2022-10-16T11:28:48;10.50;;;2.60;;
19207;SDS011;9737;59.466;18.036;2022-10-16T11:31:22;7.38;;;2.70;;
19207;SDS011;9737;59.466;18.036;2022-10-16T11:34:00;8.02;;;2.60;;
19207;SDS011;9737;59.466;18.036;2022-10-16T11:36:39;6.85;;;2.90;;
19207;SDS011;9737;59.466;18.036;2022-10-16T11:39:17;7.32;;;2.83;;
19207;SDS011;9737;59.466;18.036;2022-10-16T11:41:53;8.85;;;2.90;;
19207;SDS011;9737;59.466;18.036;2022-10-16T11:44:27;5.93;;;2.80;;
19207;SDS011;9737;59.466;18.036;2022-10-16T11:47:08;17.50;;;3.40;;
19207;SDS011;9737;59.466;18.036;2022-10-16T11:50:10;9.85;;;3.03;;
19207;SDS011;9737;59.466;18.036;2022-10-16T11:52:48;8.23;;;2.78;;
19207;SDS011;9737;59.466;18.036;2022-10-16T11:55:23;5.35;;;2.97;;
19207;SDS011;9737;59.466;18.036;2022-10-16T11:57:58;9.20;;;2.58;;
19207;SDS011;9737;59.466;18.036;2022-10-16T12:00:30;7.20;;;2.90;;
19207;SDS011;9737;59.466;18.036;2022-10-16T12:03:11;8.73;;;2.80;;
19207;SDS011;9737;59.466;18.036;2022-10-16T12:08:46;7.53;;;2.92;;
19207;SDS011;9737;59.466;18.036;2022-10-16T12:11:31;6.70;;;3.00;;
19207;SDS011;9737;59.466;18.036;2022-10-16T12:14:05;6.68;;;2.70;;
19207;SDS011;9737;59.466;18.036;2022-10-16T12:16:37;10.23;;;2.88;;
19207;SDS011;9737;59.466;18.036;2022-10-16T12:19:14;5.82;;;2.80;;
19207;SDS011;9737;59.466;18.036;2022-10-16T12:21:56;12.20;;;3.25;;
19207;SDS011;9737;59.466;18.036;2022-10-16T12:24:45;12.80;;;3.00;;
19207;SDS011;9737;59.466;18.036;2022-10-16T12:28:02;7.15;;;2.95;;
19207;SDS011;9737;59.466;18.036;2022-10-16T12:30:58;7.90;;;3.05;;
19207;SDS011;9737;59.466;18.036;2022-10-16T12:33:28;10.82;;;2.85;;
19207;SDS011;9737;59.466;18.036;2022-10-16T12:36:00;7.10;;;2.92;;
19207;SDS011;9737;59.466;18.036;2022-10-16T12:38:32;10.32;;;2.95;;
19207;SDS011;9737;59.466;18.036;2022-10-16T12:41:05;7.60;;;3.45;;
19207;SDS011;9737;59.466;18.036;2022-10-16T12:43:36;9.63;;;3.03;;
19207;SDS011;9737;59.466;18.036;2022-10-16T12:46:22;11.13;;;4.35;;
19207;SDS011;9737;59.466;18.036;2022-10-16T12:49:18;9.90;;;3.10;;
19207;SDS011;9737;59.466;18.036;2022-10-16T12:51:52;8.25;;;3.10;;
19207;SDS011;9737;59.466;18.036;2022-10-16T12:54:21;19.58;;;7.72;;
19207;SDS011;9737;59.466;18.036;2022-10-16T12:56:57;12.68;;;4.75;;
19207;SDS011;9737;59.466;18.036;2022-10-16T12:59:36;11.43;;;5.13;;
19207;SDS011;9737;59.466;18.036;2022-10-16T13:05:26;8.73;;;3.75;;
19207;SDS011;9737;59.466;18.036;2022-10-16T13:08:11;7.95;;;3.50;;
19207;SDS011;9737;59.466;18.036;2022-10-16T13:10:55;13.82;;;4.00;;
19207;SDS011;9737;59.466;18.036;2022-10-16T13:13:35;10.15;;;4.00;;
19207;SDS011;9737;59.466;18.036;2022-10-16T13:16:19;8.88;;;3.42;;
19207;SDS011;9737;59.466;18.036;2022-10-16T13:18:59;10.90;;;3.97;;
19207;SDS011;9737;59.466;18.036;2022-10-16T13:21:39;8.80;;;4.30;;
19207;SDS011;9737;59.466;18.036;2022-10-16T13:24:20;10.73;;;4.00;;
19207;SDS011;9737;59.466;18.036;2022-10-16T13:27:00;7.72;;;3.15;;
19207;SDS011;9737;59.466;18.036;2022-10-16T13:29:34;7.50;;;3.38;;
19207;SDS011;9737;59.466;18.036;2022-10-16T13:32:06;7.05;;;2.80;;
19207;SDS011;9737;59.466;18.036;2022-10-16T13:34:44;9.30;;;2.97;;
19207;SDS011;9737;59.466;18.036;2022-10-16T13:37:16;4.75;;;2.70;;
19207;SDS011;9737;59.466;18.036;2022-10-16T13:39:47;6.63;;;2.60;;
19207;SDS011;9737;59.466;18.036;2022-10-16T13:42:18;7.22;;;3.03;;
19207;SDS011;9737;59.466;18.036;2022-10-16T13:44:54;6.07;;;2.75;;
19207;SDS011;9737;59.466;18.036;2022-10-16T13:47:24;6.65;;;2.95;;
19207;SDS011;9737;59.466;18.036;2022-10-16T13:50:00;7.15;;;2.80;;
19207;SDS011;9737;59.466;18.036;2022-10-16T13:52:28;6.85;;;2.90;;
19207;SDS011;9737;59.466;18.036;2022-10-16T13:54:58;7.07;;;2.90;;
19207;SDS011;9737;59.466;18.036;2022-10-16T13:57:28;7.93;;;3.50;;
19207;SDS011;9737;59.466;18.036;2022-10-16T13:59:56;10.65;;;3.00;;
19207;SDS011;9737;59.466;18.036;2022-10-16T14:02:40;12.90;;;3.58;;
19207;SDS011;9737;59.466;18.036;2022-10-16T14:05:11;13.63;;;3.50;;
19207;SDS011;9737;59.466;18.036;2022-10-16T14:07:41;13.00;;;3.22;;
19207;SDS011;9737;59.466;18.036;2022-10-16T14:10:20;6.13;;;2.70;;
19207;SDS011;9737;59.466;18.036;2022-10-16T14:12:54;4.22;;;2.20;;
19207;SDS011;9737;59.466;18.036;2022-10-16T14:15:23;3.72;;;1.75;;
19207;SDS011;9737;59.466;18.036;2022-10-16T14:17:51;3.55;;;1.65;;
19207;SDS011;9737;59.466;18.036;2022-10-16T14:20:22;4.75;;;1.40;;
19207;SDS011;9737;59.466;18.036;2022-10-16T14:22:58;3.40;;;1.60;;
19207;SDS011;9737;59.466;18.036;2022-10-16T14:25:30;6.30;;;1.80;;
19207;SDS011;9737;59.466;18.036;2022-10-16T14:28:01;3.60;;;1.85;;
19207;SDS011;9737;59.466;18.036;2022-10-16T14:30:32;8.05;;;1.80;;
19207;SDS011;9737;59.466;18.036;2022-10-16T14:33:02;4.75;;;2.53;;
19207;SDS011;9737;59.466;18.036;2022-10-16T14:35:32;3.83;;;2.30;;
19207;SDS011;9737;59.466;18.036;2022-10-16T14:38:02;5.05;;;2.63;;
19207;SDS011;9737;59.466;18.036;2022-10-16T14:40:33;6.32;;;2.45;;
19207;SDS011;9737;59.466;18.036;2022-10-16T14:43:04;6.03;;;2.25;;
19207;SDS011;9737;59.466;18.036;2022-10-16T14:45:35;5.35;;;2.13;;
19207;SDS011;9737;59.466;18.036;2022-10-16T14:48:04;6.63;;;2.40;;
19207;SDS011;9737;59.466;18.036;2022-10-16T14:50:45;32.25;;;4.95;;
19207;SDS011;9737;59.466;18.036;2022-10-16T14:53:13;16.13;;;3.70;;
19207;SDS011;9737;59.466;18.036;2022-10-16T14:55:42;10.38;;;4.57;;
19207;SDS011;9737;59.466;18.036;2022-10-16T14:58:13;20.60;;;3.25;;
19207;SDS011;9737;59.466;18.036;2022-10-16T15:00:43;14.23;;;3.40;;
19207;SDS011;9737;59.466;18.036;2022-10-16T15:03:11;9.57;;;4.60;;
19207;SDS011;9737;59.466;18.036;2022-10-16T15:05:39;36.80;;;17.42;;
19207;SDS011;9737;59.466;18.036;2022-10-16T15:08:08;40.45;;;18.27;;
19207;SDS011;9737;59.466;18.036;2022-10-16T15:10:38;42.60;;;12.25;;
19207;SDS011;9737;59.466;18.036;2022-10-16T15:13:12;27.83;;;11.73;;
19207;SDS011;9737;59.466;18.036;2022-10-16T15:15:42;15.40;;;6.40;;